Time;durP1;ratioP1;P1;durP2;ratioP2;P2;SDS_P1;SDS_P2;PMS_P1;PMS_P2;Temp;Humidity;BMP_temperature;BMP_pressure;BME280_temperature;BME280_humidity;BME280_pressure;Samples;Min_cycle;Max_cycle;Signal;HPM_P1;HPM_P2
2021/08/27 00:01:38;;;;;;;8.60;5.38;;;;;;;18.70;71.84;98176.34;5138907;27;20063;-90
2021/08/27 00:04:04;;;;;;;7.68;5.65;;;;;;;18.77;71.74;98177.66;5136877;27;20106;-90
2021/08/27 00:06:30;;;;;;;8.40;5.03;;;;;;;18.79;72.17;98178.44;5134793;27;20063;-90
2021/08/27 00:08:55;;;;;;;8.30;5.47;;;;;;;18.87;71.81;98178.75;5140309;27;20045;-91
2021/08/27 00:11:21;;;;;;;11.43;5.60;;;;;;;18.81;71.72;98173.81;5135672;27;20074;-91
2021/08/27 00:13:48;;;;;;;7.38;4.93;;;;;;;18.79;71.76;98178.44;5143541;27;20415;-91
2021/08/27 00:16:13;;;;;;;7.78;5.03;;;;;;;18.73;72.41;98170.75;5132792;27;20520;-91
2021/08/27 00:18:41;;;;;;;7.53;5.10;;;;;;;18.64;72.96;98169.56;5135630;27;20130;-91
2021/08/27 00:21:06;;;;;;;8.40;5.05;;;;;;;18.57;72.69;98158.34;5135849;27;20046;-90
2021/08/27 00:23:32;;;;;;;8.95;5.72;;;;;;;18.57;73.38;98168.25;5134841;27;20031;-91
2021/08/27 00:25:58;;;;;;;9.95;5.38;;;;;;;18.47;73.75;98155.41;5138143;27;20491;-92
2021/08/27 00:28:24;;;;;;;8.45;5.07;;;;;;;18.40;74.38;98167.59;5142051;27;20047;-92
2021/08/27 00:30:50;;;;;;;9.50;5.70;;;;;;;18.42;74.18;98178.25;5137211;27;20042;-91
2021/08/27 00:33:16;;;;;;;7.22;5.30;;;;;;;18.40;74.79;98172.97;5139129;27;20430;-93
2021/08/27 00:35:43;;;;;;;7.30;5.35;;;;;;;18.29;75.12;98164.78;5147322;27;20039;-92
2021/08/27 00:38:14;;;;;;;9.55;5.95;;;;;;;18.27;75.81;98175.63;5136022;27;20126;-91
2021/08/27 00:40:40;;;;;;;9.02;5.82;;;;;;;18.19;76.24;98163.66;5143011;27;20031;-91
2021/08/27 00:43:06;;;;;;;8.50;6.13;;;;;;;18.18;77.16;98170.88;5137552;27;20057;-92
2021/08/27 00:45:31;;;;;;;10.32;6.43;;;;;;;18.16;77.08;98159.34;5137552;27;20031;-91
2021/08/27 00:47:58;;;;;;;12.43;6.80;;;;;;;18.22;77.60;98167.03;5140528;27;20038;-91
2021/08/27 00:50:24;;;;;;;10.90;7.10;;;;;;;18.30;77.60;98179.09;5138319;27;20043;-92
2021/08/27 00:52:51;;;;;;;10.95;7.25;;;;;;;18.35;77.77;98175.13;5145072;27;20557;-92
2021/08/27 00:55:17;;;;;;;7.90;6.32;;;;;;;18.38;77.30;98171.34;5138238;27;20076;-93
2021/08/27 00:57:43;;;;;;;11.45;6.80;;;;;;;18.41;77.59;98184.59;5138017;27;20051;-91
2021/08/27 01:00:10;;;;;;;11.15;7.78;;;;;;;18.38;77.46;98176.75;5141214;27;20039;-91
2021/08/27 01:02:36;;;;;;;13.80;7.22;;;;;;;18.41;77.69;98176.53;5137711;27;20071;-92
2021/08/27 01:05:04;;;;;;;9.15;6.65;;;;;;;18.46;78.01;98175.25;5137654;27;20035;-91
2021/08/27 01:07:35;;;;;;;11.05;6.45;;;;;;;18.47;77.47;98165.34;5137704;27;20051;-91
2021/08/27 01:10:09;;;;;;;8.82;6.20;;;;;;;18.41;77.31;98153.19;5137497;27;20100;-92
2021/08/27 01:12:54;;;;;;;12.27;7.30;;;;;;;18.39;78.08;98168.56;5134876;27;20524;-92
2021/08/27 01:15:24;;;;;;;11.35;7.07;;;;;;;18.33;78.99;98173.50;5132782;27;20433;-92
2021/08/27 01:17:55;;;;;;;10.70;7.05;;;;;;;18.27;79.48;98178.31;5131844;27;20038;-90
2021/08/27 01:20:40;;;;;;;8.93;6.55;;;;;;;18.16;79.70;98156.66;5136120;27;20043;-92
2021/08/27 01:23:17;;;;;;;11.50;6.88;;;;;;;18.24;79.51;98164.25;5136895;27;20063;-92
2021/08/27 01:25:51;;;;;;;11.27;6.53;;;;;;;18.16;79.20;98150.44;5134419;27;20074;-91
2021/08/27 01:28:20;;;;;;;12.13;6.80;;;;;;;18.16;79.99;98162.06;5136226;27;20095;-92
2021/08/27 01:30:59;;;;;;;11.63;7.22;;;;;;;18.19;80.00;98167.22;5135118;27;20043;-92
2021/08/27 01:33:29;;;;;;;11.80;6.43;;;;;;;18.18;79.85;98164.66;5136377;27;20042;-92
2021/08/27 01:36:00;;;;;;;8.45;6.40;;;;;;;18.15;80.04;98168.41;5138914;27;20415;-92
2021/08/27 01:38:31;;;;;;;8.80;6.18;;;;;;;18.09;79.81;98150.00;5141208;27;20492;-92
2021/08/27 01:40:57;;;;;;;9.05;6.10;;;;;;;18.14;80.20;98165.81;5137236;27;20114;-92
2021/08/27 01:43:25;;;;;;;8.90;6.20;;;;;;;18.10;80.05;98165.16;5137434;27;20492;-91
2021/08/27 01:45:56;;;;;;;9.35;5.78;;;;;;;18.12;79.83;98148.91;5133972;27;20031;-92
2021/08/27 01:48:25;;;;;;;9.13;6.05;;;;;;;18.27;79.10;98164.88;5136967;27;20130;-91
2021/08/27 01:50:54;;;;;;;9.65;6.13;;;;;;;18.40;78.41;98164.03;5136556;27;20055;-91
2021/08/27 01:53:22;;;;;;;12.48;6.60;;;;;;;18.42;78.00;98157.56;5136809;27;20039;-91
2021/08/27 01:55:49;;;;;;;10.90;5.63;;;;;;;18.42;77.91;98157.56;5136582;27;20058;-91
2021/08/27 01:58:15;;;;;;;9.48;5.70;;;;;;;18.48;78.07;98156.31;5136579;27;20063;-92
2021/08/27 02:00:41;;;;;;;11.18;6.20;;;;;;;18.44;77.96;98165.56;5134401;27;20038;-92
2021/08/27 02:03:09;;;;;;;12.27;5.75;;;;;;;18.39;78.04;98157.81;5135750;27;20039;-90
2021/08/27 02:05:37;;;;;;;8.63;5.57;;;;;;;18.35;78.01;98160.81;5135880;27;20127;-91
2021/08/27 02:08:03;;;;;;;12.68;5.20;;;;;;;18.34;77.70;98164.47;5135768;27;20480;-91
2021/08/27 02:10:31;;;;;;;8.57;5.68;;;;;;;18.35;77.74;98166.19;5136109;27;20031;-90
2021/08/27 02:12:57;;;;;;;9.50;5.47;;;;;;;18.43;77.97;98177.28;5135752;27;20035;-91
2021/08/27 02:15:24;;;;;;;9.05;5.68;;;;;;;18.40;78.12;98177.50;5134597;27;20039;-91
2021/08/27 02:17:50;;;;;;;10.23;5.57;;;;;;;18.38;78.22;98172.22;5135483;27;20088;-92
2021/08/27 02:20:17;;;;;;;6.78;5.38;;;;;;;18.29;78.71;98172.84;5135754;27;20042;-91
2021/08/27 02:22:50;;;;;;;8.32;5.65;;;;;;;18.34;78.75;98186.84;5135578;27;20077;-90
2021/08/27 02:25:19;;;;;;;8.73;5.78;;;;;;;18.28;79.75;98181.88;5135703;27;20050;-90
2021/08/27 02:27:47;;;;;;;8.73;6.07;;;;;;;18.28;79.77;98181.88;5135386;27;20039;-90
2021/08/27 02:30:15;;;;;;;;;;;;;;;18.29;80.72;98178.22;5133160;27;20035;-91
2021/08/27 02:32:43;;;;;;;10.23;6.95;;;;;;;18.25;80.81;98182.09;5135834;27;19965;-91
2021/08/27 02:35:11;;;;;;;9.98;7.07;;;;;;;18.24;80.45;98175.84;5134410;27;20123;-91
2021/08/27 02:37:39;;;;;;;11.25;7.65;;;;;;;18.22;81.60;98179.63;5135425;27;20042;-91
2021/08/27 02:40:06;;;;;;;12.25;7.95;;;;;;;18.22;81.54;98172.41;5135652;27;20042;-91
2021/08/27 02:42:32;;;;;;;14.10;7.20;;;;;;;18.20;81.79;98170.78;5135338;27;20511;-91
2021/08/27 02:45:00;;;;;;;10.68;7.88;;;;;;;18.20;82.39;98171.66;5135407;27;20039;-92
2021/08/27 02:47:27;;;;;;;11.05;7.65;;;;;;;18.20;82.68;98174.34;5134667;27;20051;-92
2021/08/27 02:49:53;;;;;;;9.45;7.63;;;;;;;18.17;83.08;98174.56;5135337;27;21386;-90
2021/08/27 02:52:25;;;;;;;11.05;8.10;;;;;;;18.10;84.18;98165.16;5135395;27;20040;-92
2021/08/27 02:55:02;;;;;;;14.02;8.85;;;;;;;18.22;84.31;98174.25;5135169;27;20039;-91
2021/08/27 02:57:31;;;;;;;11.60;8.75;;;;;;;18.17;84.16;98166.47;5134347;27;20458;-93
2021/08/27 03:00:00;;;;;;;;;;;;;;;18.19;85.09;98166.34;5133977;27;20600;-92
2021/08/27 03:02:26;;;;;;;;;;;;;;;18.16;85.09;98155.81;5134595;27;19927;-91
2021/08/27 03:04:55;;;;;;;;;;;;;;;18.15;85.40;98160.34;5136095;27;19933;-92
2021/08/27 03:07:22;;;;;;;;;;;;;;;18.14;85.67;98161.28;5136049;27;20448;-91
2021/08/27 03:09:50;;;;;;;;;;;;;;;18.12;85.78;98162.38;5135135;27;20284;-91
2021/08/27 03:12:17;;;;;;;;;;;;;;;18.11;86.28;98164.19;5134886;27;19946;-91
2021/08/27 03:14:47;;;;;;;;;;;;;;;18.13;86.88;98161.38;5134832;27;20328;-92
2021/08/27 03:17:16;;;;;;;;;;;;;;;18.11;86.68;98164.19;5132340;27;20373;-92
2021/08/27 03:19:44;;;;;;;;;;;;;;;18.10;86.23;98156.22;5135225;27;19962;-91
2021/08/27 03:22:13;;;;;;;;;;;;;;;18.08;86.33;98161.69;5135322;27;20375;-92
2021/08/27 03:24:41;;;;;;;;;;;;;;;18.04;86.37;98162.88;5133890;27;19941;-91
2021/08/27 03:27:09;;;;;;;;;;;;;;;18.00;86.60;98156.84;5135396;27;20407;-92
2021/08/27 03:29:37;;;;;;;;;;;;;;;17.93;86.67;98152.81;5134000;27;19919;-92
2021/08/27 03:32:04;;;;;;;;;;;;;;;17.92;86.52;98158.34;5133556;27;19926;-92
2021/08/27 03:34:31;;;;;;;;;;;;;;;17.92;86.19;98163.72;5135215;27;19919;-92
2021/08/27 03:36:57;;;;;;;;;;;;;;;17.84;86.10;98161.50;5135158;27;19923;-90
2021/08/27 03:39:23;;;;;;;;;;;;;;;17.76;86.25;98163.81;5134794;27;19965;-92
2021/08/27 03:41:49;;;;;;;;;;;;;;;17.68;86.72;98155.41;5134866;27;19927;-92
2021/08/27 03:44:16;;;;;;;;;;;;;;;17.66;87.09;98160.88;5134742;27;19983;-92
2021/08/27 03:46:42;;;;;;;;;;;;;;;17.67;87.27;98159.91;5133140;27;19919;-91
2021/08/27 03:49:07;;;;;;;;;;;;;;;17.63;87.86;98155.69;5134727;27;19963;-93
2021/08/27 03:51:35;;;;;;;;;;;;;;;17.58;88.53;98156.00;5135032;27;19926;-91
2021/08/27 03:54:01;;;;;;;;;;;;;;;17.58;87.42;98153.31;5134235;27;20436;-91
2021/08/27 03:56:27;;;;;;;;;;;;;;;17.57;87.24;98145.38;5134651;27;19942;-91
2021/08/27 03:58:53;;;;;;;;;;;;;;;17.53;87.38;98154.59;5134258;27;19927;-92
2021/08/27 04:01:20;;;;;;;;;;;;;;;17.49;87.36;98150.38;5131281;27;19919;-90
2021/08/27 04:03:45;;;;;;;;;;;;;;;17.46;87.54;98151.44;5134653;28;19923;-91
2021/08/27 04:06:11;;;;;;;;;;;;;;;17.46;87.94;98146.06;5135071;28;19969;-92
2021/08/27 04:08:39;;;;;;;;;;;;;;;17.44;88.05;98156.91;5134624;28;19968;-91
2021/08/27 04:11:04;;;;;;;;;;;;;;;17.41;88.43;98149.06;5134609;28;19919;-93
2021/08/27 04:13:30;;;;;;;;;;;;;;;17.37;88.21;98150.22;5134796;28;19969;-91
2021/08/27 04:15:56;;;;;;;;;;;;;;;17.34;88.56;98154.91;5133402;28;20355;-92
2021/08/27 04:18:21;;;;;;;;;;;;;;;17.30;88.40;98148.00;5134834;28;20022;-92
2021/08/27 04:20:46;;;;;;;;;;;;;;;17.29;88.48;98148.97;5134831;28;20394;-92
2021/08/27 04:23:12;;;;;;;;;;;;;;;17.30;88.96;98145.31;5134524;28;19919;-91
2021/08/27 04:25:39;;;;;;;;;;;;;;;17.26;88.95;98144.63;5134937;28;19927;-92
2021/08/27 04:28:05;;;;;;;;;;;;;;;17.24;89.60;98147.44;5134491;28;19919;-92
2021/08/27 04:30:30;;;;;;;;;;;;;;;17.26;89.89;98147.31;5133182;28;20386;-92
2021/08/27 04:32:56;;;;;;;;;;;;;;;17.31;90.14;98147.91;5134757;28;19962;-91
2021/08/27 04:35:21;;;;;;;;;;;;;;;17.35;90.61;98153.94;5134193;28;20330;-90
2021/08/27 04:37:47;;;;;;;;;;;;;;;17.35;90.91;98146.75;5134749;28;19919;-92
2021/08/27 04:40:13;;;;;;;;;;;;;;;17.37;91.01;98149.31;5134191;28;19945;-92
2021/08/27 04:42:40;;;;;;;;;;;;;;;17.40;90.54;98146.47;5134581;28;19941;-91
2021/08/27 04:45:06;;;;;;;;;;;;;;;17.40;90.62;98139.25;5133198;28;20372;-92
2021/08/27 04:47:31;;;;;;;;;;;;;;;17.43;90.68;98144.41;5134370;28;19949;-92
2021/08/27 04:49:57;;;;;;;;;;;;;;;17.48;90.21;98149.50;5134339;28;19927;-93
2021/08/27 04:52:22;;;;;;;;;;;;;;;17.49;90.26;98151.22;5134358;28;19989;-92
2021/08/27 04:54:48;;;;;;;;;;;;;;;17.53;89.52;98152.75;5134376;28;19919;-92
2021/08/27 04:57:13;;;;;;;;;;;;;;;17.59;89.12;98152.34;5134640;28;20292;-90
2021/08/27 05:02:35;;;;;;;;;;;;;;;17.64;88.03;98147.53;5132462;27;19976;-91
2021/08/27 05:05:01;;;;;;;;;;;;;;;17.65;87.43;98148.38;5131986;28;19928;-93
2021/08/27 05:07:27;;;;;;;;;;;;;;;17.64;86.92;98142.16;5132873;28;19923;-92
2021/08/27 05:09:52;;;;;;;;;;;;;;;17.69;86.87;98139.16;5136501;28;19923;-91
2021/08/27 05:12:18;;;;;;;;;;;;;;;17.71;87.54;98150.69;5135553;28;19977;-92
2021/08/27 05:14:43;;;;;;;;;;;;;;;17.73;87.22;98143.38;5135689;28;20288;-93
2021/08/27 05:17:09;;;;;;;;;;;;;;;17.76;87.13;98148.56;5133043;28;20293;-92
2021/08/27 05:19:37;;;;;;;;;;;;;;;17.84;86.63;98145.38;5133760;28;20380;-92
2021/08/27 05:22:02;;;;;;;;;;;;;;;17.88;86.57;98148.75;5134447;28;19977;-92
2021/08/27 05:24:28;;;;;;;;;;;;;;;17.89;86.19;98148.66;5134266;28;19928;-92
2021/08/27 05:26:54;;;;;;;;;;;;;;;17.90;86.43;98144.97;5134694;28;19924;-92
2021/08/27 05:29:20;;;;;;;;;;;;;;;17.93;85.96;98152.81;5133948;28;19924;-92
2021/08/27 05:31:45;;;;;;;;;;;;;;;17.98;85.67;98152.53;5132073;28;19945;-93
2021/08/27 05:34:11;;;;;;;;;;;;;;;18.01;85.57;98155.88;5133772;28;19923;-93
2021/08/27 05:36:38;;;;;;;;;;;;;;;18.12;85.03;98148.91;5133749;28;19935;-95
2021/08/27 05:39:04;;;;;;;;;;;;;;;18.23;84.04;98157.13;5133316;28;19923;-93
2021/08/27 05:41:29;;;;;;;;;;;;;;;18.39;83.78;98152.41;5133723;28;20330;-93
2021/08/27 05:43:55;;;;;;;;;;;;;;;18.57;82.72;98147.56;5133380;28;19923;-93
2021/08/27 05:46:20;;;;;;;;;;;;;;;18.71;82.12;98145.75;5131968;28;19977;-92
2021/08/27 05:48:46;;;;;;;;;;;;;;;18.83;81.68;98153.84;5134187;28;19960;-93
2021/08/27 05:51:12;;;;;;;;;;;;;;;18.98;80.84;98142.97;5134956;28;19931;-92
2021/08/27 05:53:39;;;;;;;;;;;;;;;19.19;79.79;98140.56;5134027;28;20004;-92
2021/08/27 05:56:07;;;;;;;;;;;;;;;19.32;78.58;98138.69;5132136;28;19930;-91
2021/08/27 05:58:33;;;;;;;;;;;;;;;19.53;77.54;98136.25;5133893;28;19932;-91
2021/08/27 06:00:58;;;;;;;;;;;;;;;19.69;75.44;98142.28;5130140;28;20544;-92
2021/08/27 06:03:24;;;;;;;;;;;;;;;19.83;73.76;98141.25;5133982;28;20030;-92
2021/08/27 06:05:49;;;;;;;;;;;;;;;19.97;72.33;98148.28;5132810;28;20023;-92
2021/08/27 06:08:15;;;;;;;;;;;;;;;20.11;71.87;98148.13;5133620;28;19924;-93
2021/08/27 06:10:42;;;;;;;;;;;;;;;20.26;71.37;98143.38;5133156;28;19923;-92
2021/08/27 06:13:07;;;;;;;;;;;;;;;20.42;70.71;98144.91;5123881;28;20397;-92
2021/08/27 06:15:33;;;;;;;;;;;;;;;20.56;69.73;98142.00;5118997;28;19924;-92
2021/08/27 06:17:59;;;;;;;;;;;;;;;20.72;69.10;98139.84;5120041;28;19931;-92
2021/08/27 06:20:24;;;;;;;;;;;;;;;20.87;68.69;98142.31;5118130;28;20056;-92
2021/08/27 06:22:50;;;;;;;;;;;;;;;20.92;67.62;98146.34;5119294;28;19924;-92
2021/08/27 06:25:15;;;;;;;;;;;;;;;20.91;67.18;98149.19;5120251;28;20463;-93
2021/08/27 06:27:42;;;;;;;;;;;;;;;20.95;67.43;98129.06;5120299;28;20376;-92
2021/08/27 06:30:08;;;;;;;;;;;;;;;21.09;66.13;98134.19;5118425;28;19959;-92
2021/08/27 06:32:34;;;;;;;;;;;;;;;21.20;65.45;98132.50;5118742;28;20403;-92
2021/08/27 06:34:59;;;;;;;;;;;;;;;21.39;65.08;98127.31;5119143;28;19931;-93
2021/08/27 06:40:19;;;;;;;;;;;;;;;21.66;64.15;98136.88;5126821;27;19920;-93
2021/08/27 06:42:45;;;;;;;;;;;;;;;21.78;63.73;98119.63;5094266;28;20322;-93
2021/08/27 06:45:11;;;;;;;;;;;;;;;21.94;63.60;98130.00;5093100;28;19971;-93
2021/08/27 06:47:38;;;;;;;;;;;;;;;22.11;62.91;98139.44;5092419;28;19925;-94
2021/08/27 06:50:04;;;;;;;;;;;;;;;22.26;62.76;98132.75;5094898;28;20289;-94
2021/08/27 06:52:31;;;;;;;;;;;;;;;22.30;62.39;98133.34;5094500;28;19952;-94
2021/08/27 06:54:56;;;;;;;;;;;;;;;22.42;62.29;98131.44;5093866;28;19925;-93
2021/08/27 06:57:24;;;;;;;;;;;;;;;22.58;61.99;98128.28;5092671;28;19948;-94
2021/08/27 06:59:49;;;;;;;;;;;;;;;22.65;62.08;98111.34;5092295;28;19954;-93
2021/08/27 07:02:15;;;;;;;;;;;;;;;22.90;60.90;98120.00;5091860;28;20628;-93
2021/08/27 07:04:41;;;;;;;;;;;;;;;22.93;61.25;98115.19;5092703;28;19974;-92
2021/08/27 07:07:06;;;;;;;;;;;;;;;23.00;61.48;98115.53;5091784;28;20371;-93
2021/08/27 07:09:32;;;;;;;;;;;;;;;23.16;61.17;98121.31;5091965;28;19938;-90
2021/08/27 07:11:58;;;;;;;;;;;;;;;23.11;61.09;98118.16;5091995;28;20377;-93
2021/08/27 07:14:25;;;;;;;;;;;;;;;23.20;60.69;98112.91;5091796;28;20404;-93
2021/08/27 07:16:51;;;;;;;;;;;;;;;23.41;60.21;98124.53;5090733;28;20012;-93
2021/08/27 07:19:16;;;;;;;;;;;;;;;23.25;60.78;98118.75;5093467;28;19971;-93
2021/08/27 07:21:42;;;;;;;;;;;;;;;23.04;61.49;98116.97;5093407;28;19933;-93
2021/08/27 07:24:08;;;;;;;;;;;;;;;23.33;60.56;98121.66;5092446;28;20439;-94
2021/08/27 07:26:34;;;;;;;;;;;;;;;23.66;59.28;98119.59;5092688;28;19977;-94
2021/08/27 07:28:59;;;;;;;;;;;;;;;23.91;58.63;98123.66;5091109;28;19939;-93
2021/08/27 07:31:26;;;;;;;;;;;;;;;23.85;58.70;98125.06;5090744;28;19951;-92
2021/08/27 07:33:52;;;;;;;;;;;;;;;24.01;58.09;98127.25;5092017;28;20419;-94
2021/08/27 07:36:17;;;;;;;;;;;;;;;24.24;57.54;98130.53;5089894;28;19924;-93
2021/08/27 07:38:43;;;;;;;;;;;;;;;24.28;57.04;98136.53;5098008;28;19967;-91
2021/08/27 07:41:09;;;;;;;;;;;;;;;24.14;57.86;98138.69;5111763;28;19946;-92
2021/08/27 07:43:34;;;;;;;;;;;;;;;24.34;57.05;98136.81;5110087;28;19924;-94
2021/08/27 07:46:00;;;;;;;;;;;;;;;23.89;58.18;98137.38;5110691;28;19932;-92
2021/08/27 07:48:27;;;;;;;;;;;;;;;23.69;58.27;98146.47;5111951;28;20377;-92
2021/08/27 07:50:53;;;;;;;;;;;;;;;23.12;60.21;98147.00;5102795;28;19927;-92
2021/08/27 07:53:19;;;;;;;;;;;;;;;23.45;59.73;98142.25;5097807;28;19981;-92
2021/08/27 07:55:45;;;;;;;;;;;;;;;23.93;58.55;98148.81;5098624;28;19924;-91
2021/08/27 07:58:11;;;;;;;;;;;;;;;24.10;57.63;98144.56;5098008;28;19924;-93
2021/08/27 08:00:37;;;;;;;;;;;;;;;24.48;56.91;98148.25;5096825;28;19966;-93
2021/08/27 08:03:03;;;;;;;;;;;;;;;24.71;56.22;98143.41;5098803;28;19950;-95
2021/08/27 08:05:30;;;;;;;;;;;;;;;25.06;55.33;98141.88;5097887;28;19932;-93
2021/08/27 08:07:55;;;;;;;;;;;;;;;25.29;54.65;98136.94;5095840;28;19966;-91
2021/08/27 08:10:21;;;;;;;;;;;;;;;24.75;56.00;98148.41;5098402;28;19924;-94
2021/08/27 08:12:46;;;;;;;;;;;;;;;24.43;56.52;98147.84;5099480;28;20011;-93
2021/08/27 08:15:12;;;;;;;;;;;;;;;24.50;56.86;98157.16;5096663;28;19955;-92
2021/08/27 08:17:38;;;;;;;;;;;;;;;24.95;56.90;98153.78;5099596;28;20448;-93
2021/08/27 08:20:04;;;;;;;;;;;;;;;25.24;55.92;98139.25;5099408;28;19923;-93
2021/08/27 08:22:31;;;;;;;;;;;;;;;25.51;54.13;98139.25;5098914;28;19963;-93
2021/08/27 08:24:56;;;;;;;;;;;;;;;25.66;54.00;98142.34;5098925;28;19947;-94
2021/08/27 08:27:33;;;;;;;;;;;;;;;25.58;53.58;98136.78;5100839;28;19924;-95
2021/08/27 08:29:59;;;;;;;;;;;;;;;25.14;54.17;98147.44;5103076;28;19960;-95
2021/08/27 08:32:24;;;;;;;;;;;;;;;25.47;53.99;98137.00;5097903;28;19930;-93
2021/08/27 08:34:50;;;;;;;;;;;;;;;25.53;53.80;98142.69;5101380;28;19928;-96
2021/08/27 08:37:16;;;;;;;;;;;;;;;25.69;53.39;98136.56;5101816;28;19969;-95
2021/08/27 08:39:43;;;;;;;;;;;;;;;25.43;54.04;98136.44;5099050;28;19924;-92
2021/08/27 08:42:08;;;;;;;;;;;;;;;25.59;53.89;98133.94;5098087;28;19931;-95
2021/08/27 08:44:34;;;;;;;;;;;;;;;25.89;52.16;98131.03;5098918;28;19924;-93
2021/08/27 08:47:01;;;;;;;;;;;;;;;26.25;51.53;98133.78;5098516;28;19928;-94
2021/08/27 08:49:28;;;;;;;;;;;;;;;26.24;51.25;98141.09;5098627;28;19924;-95
2021/08/27 08:51:54;;;;;;;;;;;;;;;26.44;49.92;98139.06;5098136;28;19924;-94
2021/08/27 08:54:20;;;;;;;;;;;;;;;26.70;49.67;98138.28;5097966;28;19939;-94
2021/08/27 08:56:47;;;;;;;;;;;;;;;26.82;49.41;98129.66;5097507;28;19924;-93
2021/08/27 08:59:13;;;;;;;;;;;;;;;27.10;49.35;98132.22;5097780;28;19962;-91
2021/08/27 09:01:39;;;;;;;;;;;;;;;26.63;48.83;98124.41;5095652;28;19924;-94
2021/08/27 09:04:04;;;;;;;;;;;;;;;26.86;47.52;98119.28;5098385;28;19931;-93
2021/08/27 09:06:30;;;;;;;;;;;;;;;26.70;48.79;98130.09;5097930;28;19928;-93
2021/08/27 09:09:00;;;;;;;;;;;;;;;27.03;48.32;98125.69;5097511;28;20010;-94
2021/08/27 09:11:26;;;;;;;;;;;;;;;26.96;47.75;98130.94;5098048;28;19924;-94
2021/08/27 09:13:54;;;;;;;;;;;;;;;27.28;47.36;98128.56;5096427;28;20028;-91
2021/08/27 09:16:23;;;;;;;;;;;;;;;27.56;45.94;98121.03;5096941;28;19952;-91
2021/08/27 09:18:52;;;;;;;;;;;;;;;27.82;46.17;98123.66;5101114;28;20437;-93
2021/08/27 09:21:28;;;;;;;;;;;;;;;27.05;47.04;98119.06;5089882;28;19924;-91
2021/08/27 09:24:13;;;;;;;;;;;;;;;27.00;47.84;98126.00;5097603;28;19931;-94
2021/08/27 09:26:39;;;;;;;;;;;;;;;27.43;47.04;98122.34;5097962;28;20434;-94
2021/08/27 09:29:06;;;;;;;;;;;;;;;27.43;45.22;98116.00;5095203;28;20296;-93
2021/08/27 09:31:32;;;;;;;;;;;;;;;28.09;44.20;98122.56;5095221;28;19931;-92
2021/08/27 09:33:58;;;;;;;;;;;;;;;28.11;44.57;98115.06;5097183;28;19924;-94
2021/08/27 09:36:24;;;;;;;;;;;;;;;27.93;44.95;98101.50;5097795;28;19931;-94
2021/08/27 09:38:59;;;;;;;;;;;;;;;28.21;44.97;98107.53;5097700;28;19928;-95
2021/08/27 09:41:25;;;;;;;;;;;;;;;28.15;44.99;98113.69;5098846;28;19989;-95
2021/08/27 09:43:51;;;;;;;;;;;;;;;28.51;43.75;98093.38;5098758;28;19932;-93
2021/08/27 09:46:34;;;;;;;;;;;;;;;27.72;44.60;98095.66;5097846;28;19925;-91
2021/08/27 09:49:01;;;;;;;;;;;;;;;26.94;45.21;98096.66;5097730;28;20010;-94
2021/08/27 09:51:45;;;;;;;;;;;;;;;27.18;44.90;98096.78;5098377;28;19925;-92
2021/08/27 09:54:19;;;;;;;;;;;;;;;27.50;44.96;98094.38;5098072;28;19977;-94
2021/08/27 09:56:45;;;;;;;;;;;;;;;27.97;44.00;98094.69;5095027;28;20006;-92
2021/08/27 09:59:11;;;;;;;;;;;;;;;28.47;42.95;98098.28;5095866;28;19947;-95
2021/08/27 10:01:45;;;;;;;;;;;;;;;28.35;42.69;98095.06;5097472;28;19924;-94
2021/08/27 10:04:11;;;;;;;;;;;;;;;28.20;43.15;98110.44;5096258;28;19974;-93
2021/08/27 10:06:38;;;;;;;;;;;;;;;28.64;42.89;98099.19;5095593;28;20336;-94
2021/08/27 10:09:04;;;;;;;;;;;;;;;28.93;40.25;98095.00;5096223;28;19974;-94
2021/08/27 10:11:30;;;;;;;;;;;;;;;28.40;39.92;98087.19;5096039;28;19930;-93
2021/08/27 10:13:56;;;;;;;;;;;;;;;28.15;40.85;98091.81;5098050;28;19924;-94
2021/08/27 10:16:22;;;;;;;;;;;;;;;27.74;42.87;98091.72;5094954;28;19924;-93
2021/08/27 10:18:49;;;;;;;;;;;;;;;27.34;42.86;98093.28;5095343;28;20381;-93
2021/08/27 10:21:15;;;;;;;;;;;;;;;27.24;43.35;98078.94;5095527;28;19971;-92
2021/08/27 10:23:42;;;;;;;;;;;;;;;27.19;43.84;98079.38;5095551;28;20297;-93
2021/08/27 10:26:15;;;;;;;;;;;;;;;27.48;43.32;98086.34;5096026;28;19932;-95
2021/08/27 10:28:41;;;;;;;;;;;;;;;27.61;43.48;98088.63;5096516;28;19928;-92
2021/08/27 10:31:06;;;;;;;;;;;;;;;28.32;42.00;98080.88;5097388;28;19935;-92
2021/08/27 10:34:02;;;;;;;;;;;;;;;28.33;42.17;98080.72;5098229;28;19969;-95
2021/08/27 10:36:42;;;;;;;;;;;;;;;28.13;42.07;98079.31;5095867;28;19924;-94
2021/08/27 10:39:08;;;;;;;;;;;;;;;28.49;41.89;98084.50;5098979;28;19928;-94
2021/08/27 10:41:39;;;;;;;;;;;;;;;28.81;41.41;98084.44;5097701;28;20023;-94
2021/08/27 10:44:05;;;;;;;;;;;;;;;28.89;41.12;98075.38;5087858;28;20437;-94
2021/08/27 10:46:50;;;;;;;;;;;;;;;28.92;40.46;98079.63;5096846;28;19924;-95
2021/08/27 10:49:16;;;;;;;;;;;;;;;28.76;40.74;98072.31;5085852;28;19920;-94
2021/08/27 10:51:44;;;;;;;;;;;;;;;29.03;39.70;98068.31;5095087;28;20297;-93
2021/08/27 10:57:17;;;;;;;;;;;;;;;28.80;39.29;98080.00;5133995;27;19964;-95
2021/08/27 10:59:43;;;;;;;;;;;;;;;29.40;37.82;98066.81;5134812;28;20348;-93
2021/08/27 11:02:09;;;;;;;;;;;;;;;29.03;38.65;98065.56;5134387;27;19955;-92
2021/08/27 11:04:40;;;;;;;;;;;;;;;29.47;37.88;98056.84;5134290;27;20330;-95
2021/08/27 11:07:13;;;;;;;;;;;;;;;29.59;37.46;98057.31;5136703;27;19953;-92
2021/08/27 11:09:39;;;;;;;;;;;;;;;29.77;36.98;98051.56;5135287;27;19974;-93
2021/08/27 11:12:10;;;;;;;;;;;;;;;29.74;36.26;98043.72;5132685;28;20392;-92
2021/08/27 11:14:36;;;;;;;;;;;;;;;29.40;37.32;98051.22;5133480;27;19959;-93
2021/08/27 11:17:05;;;;;;;;;;;;;;;28.56;38.81;98052.69;5132391;27;20399;-96
2021/08/27 11:19:31;;;;;;;;;;;;;;;28.13;39.86;98058.34;5133750;27;19938;-95
2021/08/27 11:22:12;;;;;;;;;;;;;;;28.17;40.23;98048.78;5135335;27;19923;-95
2021/08/27 11:24:37;;;;;;;;;;;;;;;28.47;39.03;98047.22;5132234;28;19924;-95
2021/08/27 11:27:04;;;;;;;;;;;;;;;28.20;39.63;98047.56;5133066;27;20304;-92
2021/08/27 11:29:33;;;;;;;;;;;;;;;28.40;39.66;98048.91;5132726;27;19959;-94
2021/08/27 11:32:07;;;;;;;;;;;;;;;28.64;39.23;98039.00;5132848;27;19924;-92
2021/08/27 11:34:48;;;;;;;;;;;;;;;28.72;38.59;98036.25;5134156;28;19923;-93
2021/08/27 11:37:14;;;;;;;;;;;;;;;28.57;40.04;98041.56;5130751;28;19946;-92
2021/08/27 11:39:40;;;;;;;;;;;;;;;28.27;39.47;98043.13;5132796;28;20273;-95
2021/08/27 11:42:05;;;;;;;;;;;;;;;28.39;39.74;98041.75;5132901;27;20318;-93
2021/08/27 11:44:42;;;;;;;;;;;;;;;28.45;39.31;98040.19;5132747;27;19923;-95
2021/08/27 11:47:09;;;;;;;;;;;;;;;28.38;39.18;98042.75;5134007;27;19923;-93
2021/08/27 11:49:38;;;;;;;;;;;;;;;28.18;39.24;98045.00;5129915;28;19934;-94
2021/08/27 11:52:25;;;;;;;;;;;;;;;28.05;39.09;98036.47;5133705;27;19924;-92
2021/08/27 11:54:58;;;;;;;;;;;;;;;28.00;40.04;98036.97;5130678;27;19931;-93
2021/08/27 11:57:25;;;;;;;;;;;;;;;27.88;40.08;98035.59;5133643;27;19930;-93
2021/08/27 12:00:01;;;;;;;;;;;;;;;27.81;40.37;98037.25;5132953;27;19923;-94
2021/08/27 12:02:26;;;;;;;;;;;;;;;27.57;41.37;98038.94;5131372;28;19963;-92
2021/08/27 12:04:56;;;;;;;;;;;;;;;27.36;41.71;98041.25;5132039;28;19931;-94
2021/08/27 12:07:27;;;;;;;;;;;;;;;27.17;41.50;98037.75;5124343;27;19923;-93
2021/08/27 12:10:03;;;;;;;;;;;;;;;27.12;40.70;98039.25;5120709;28;19931;-92
2021/08/27 12:12:31;;;;;;;;;;;;;;;27.52;39.16;98035.84;5117479;28;19969;-93
2021/08/27 12:15:00;;;;;;;;;;;;;;;28.17;37.64;98032.38;5119452;28;19924;-91
2021/08/27 12:17:27;;;;;;;;;;;;;;;28.78;37.21;98023.72;5116934;28;20440;-93
2021/08/27 12:19:54;;;;;;;;;;;;;;;29.40;36.49;98029.31;5117571;28;19935;-93
2021/08/27 12:22:21;;;;;;;;;;;;;;;29.42;35.64;98012.72;5117748;28;19924;-92
2021/08/27 12:24:48;;;;;;;;;;;;;;;29.57;35.13;98010.06;5117508;28;19928;-94
2021/08/27 12:27:14;;;;;;;;;;;;;;;29.13;35.35;98011.50;5116838;28;19936;-92
2021/08/27 12:29:39;;;;;;;;;;;;;;;28.90;36.95;98013.28;5116497;28;19994;-93
2021/08/27 12:32:07;;;;;;;;;;;;;;;28.60;38.08;98013.84;5114292;28;20064;-93
2021/08/27 12:34:32;;;;;;;;;;;;;;;28.79;36.96;98014.50;5117659;28;19924;-92
2021/08/27 12:36:58;;;;;;;;;;;;;;;28.78;35.88;98007.31;5116401;28;20376;-94
2021/08/27 12:39:24;;;;;;;;;;;;;;;28.19;36.95;98005.72;5117048;28;20018;-93